createdAt,value
2018-03-25T00:01:08.763Z,36.85
2018-03-25T00:03:36.264Z,35.20
2018-03-25T00:06:03.780Z,33.85
2018-03-25T00:08:31.303Z,37.25
2018-03-25T00:10:58.811Z,38.28
2018-03-25T00:13:27.070Z,35.83
2018-03-25T00:15:54.565Z,35.58
2018-03-25T00:18:22.087Z,36.63
2018-03-25T00:20:49.592Z,35.25
2018-03-25T00:23:17.087Z,34.47
2018-03-25T00:25:44.583Z,37.13
2018-03-25T00:28:12.844Z,34.67
2018-03-25T00:30:40.339Z,34.95
2018-03-25T00:33:07.847Z,34.30
2018-03-25T00:35:36.127Z,39.03
2018-03-25T00:38:03.630Z,39.03
2018-03-25T00:40:31.168Z,33.17
2018-03-25T00:42:59.434Z,32.13
2018-03-25T00:45:27.694Z,33.67
2018-03-25T00:47:55.195Z,34.83
2018-03-25T00:50:22.691Z,32.40
2018-03-25T00:52:50.228Z,33.83
2018-03-25T00:55:18.463Z,34.53
2018-03-25T00:57:46.723Z,31.55
2018-03-25T01:00:14.231Z,37.40
2018-03-25T01:02:41.728Z,33.05
2018-03-25T01:05:09.216Z,31.83
2018-03-25T01:07:37.516Z,36.22
2018-03-25T01:10:05.019Z,31.00
2018-03-25T01:12:32.514Z,33.53
2018-03-25T01:15:00.787Z,32.45
2018-03-25T01:17:29.053Z,33.50
2018-03-25T01:19:56.655Z,31.60
2018-03-25T01:22:24.171Z,35.53
2018-03-25T01:24:51.666Z,34.20
2018-03-25T01:27:19.164Z,31.95
2018-03-25T01:29:46.654Z,33.45
2018-03-25T01:32:14.935Z,33.10
2018-03-25T01:34:43.210Z,31.30
2018-03-25T01:37:11.475Z,30.40
2018-03-25T01:39:38.972Z,33.00
2018-03-25T01:42:06.479Z,34.90
2018-03-25T01:44:33.971Z,30.95
2018-03-25T01:47:01.471Z,33.58
2018-03-25T01:49:28.969Z,32.03
2018-03-25T01:51:57.238Z,32.80
2018-03-25T01:54:24.745Z,30.25
2018-03-25T01:56:52.273Z,28.58
2018-03-25T01:59:20.578Z,31.27
2018-03-25T02:01:48.066Z,38.97
2018-03-25T02:04:15.579Z,31.10
2018-03-25T02:06:43.078Z,33.35
2018-03-25T02:09:10.571Z,28.65
2018-03-25T02:11:38.836Z,31.00
2018-03-25T02:14:06.330Z,34.03
2018-03-25T02:16:33.851Z,31.73
2018-03-25T02:19:01.351Z,28.87
2018-03-25T02:21:28.896Z,33.08
2018-03-25T02:23:57.160Z,29.10
2018-03-25T02:26:25.423Z,30.58
2018-03-25T02:28:52.932Z,31.75
2018-03-25T02:31:20.435Z,32.47
2018-03-25T02:33:47.945Z,31.92
2018-03-25T02:36:15.448Z,40.92
2018-03-25T02:38:42.954Z,32.45
2018-03-25T02:41:10.463Z,28.25
2018-03-25T02:43:37.982Z,31.83
2018-03-25T02:46:05.488Z,31.15
2018-03-25T02:48:32.999Z,32.55
2018-03-25T02:51:00.501Z,35.05
2018-03-25T02:53:27.997Z,30.55
2018-03-25T02:55:55.491Z,29.98
2018-03-25T02:58:23.000Z,31.20
2018-03-25T03:00:51.280Z,29.80
2018-03-25T03:03:19.551Z,32.92
2018-03-25T03:05:47.826Z,31.58
2018-03-25T03:08:16.095Z,31.67
2018-03-25T03:10:43.595Z,31.15
2018-03-25T03:13:11.091Z,33.17
2018-03-25T03:15:38.595Z,33.42
2018-03-25T03:18:06.147Z,36.30
2018-03-25T03:20:33.656Z,30.73
2018-03-25T03:23:01.167Z,32.25
2018-03-25T03:25:29.430Z,33.75
2018-03-25T03:27:57.705Z,32.50
2018-03-25T03:30:25.991Z,31.17
2018-03-25T03:32:54.252Z,34.28
2018-03-25T03:35:23.255Z,33.63
2018-03-25T03:37:51.543Z,39.80
2018-03-25T03:40:19.807Z,35.33
2018-03-25T03:42:48.134Z,34.40
2018-03-25T03:45:15.649Z,36.40
2018-03-25T03:47:43.918Z,33.80
2018-03-25T03:50:12.204Z,39.17
2018-03-25T03:52:40.466Z,36.13
2018-03-25T03:55:08.763Z,36.50
2018-03-25T03:57:36.255Z,38.47
2018-03-25T04:00:03.748Z,32.55
2018-03-25T04:02:31.256Z,34.58
2018-03-25T04:04:58.750Z,38.33
2018-03-25T04:07:26.251Z,33.67
2018-03-25T04:09:54.522Z,34.45
2018-03-25T04:12:22.783Z,35.65
2018-03-25T04:14:50.280Z,37.28
2018-03-25T04:17:17.776Z,33.15
2018-03-25T04:19:45.271Z,34.30
2018-03-25T04:22:13.543Z,37.03
2018-03-25T04:24:41.802Z,35.85
2018-03-25T04:27:09.299Z,32.15
2018-03-25T04:29:36.794Z,35.55
2018-03-25T04:32:04.299Z,35.95
2018-03-25T04:34:32.560Z,33.80
2018-03-25T04:37:00.067Z,33.60
2018-03-25T04:39:27.555Z,35.42
2018-03-25T04:41:55.068Z,37.90
2018-03-25T04:44:22.579Z,33.70
2018-03-25T04:46:50.071Z,35.47
2018-03-25T04:49:18.331Z,36.55
2018-03-25T04:51:46.715Z,38.50
2018-03-25T04:54:14.975Z,33.05
2018-03-25T04:56:42.483Z,34.25
2018-03-25T04:59:10.003Z,36.88
2018-03-25T05:01:38.266Z,37.03
2018-03-25T05:04:05.777Z,35.28
2018-03-25T05:06:33.275Z,33.70
2018-03-25T05:09:00.767Z,35.33
2018-03-25T05:11:29.031Z,38.55
2018-03-25T05:13:57.313Z,36.25
2018-03-25T05:16:25.599Z,34.03
2018-03-25T05:18:53.967Z,36.85
2018-03-25T05:21:22.229Z,35.88
2018-03-25T05:23:49.722Z,35.47
2018-03-25T05:26:17.235Z,40.10
2018-03-25T05:28:44.731Z,35.95
2018-03-25T05:31:13.009Z,34.53
2018-03-25T05:33:40.523Z,36.85
2018-03-25T05:36:08.022Z,35.75
2018-03-25T05:38:36.295Z,35.53
2018-03-25T05:41:04.598Z,36.80
2018-03-25T05:43:32.100Z,40.42
2018-03-25T05:45:59.612Z,35.85
2018-03-25T05:48:27.102Z,33.47
2018-03-25T05:50:54.599Z,34.65
2018-03-25T05:53:22.864Z,33.50
2018-03-25T05:55:50.387Z,34.47
2018-03-25T05:58:17.875Z,38.38
2018-03-25T06:00:45.368Z,36.03
2018-03-25T06:03:12.880Z,36.42
2018-03-25T06:05:40.372Z,37.33
2018-03-25T06:08:08.652Z,38.03
2018-03-25T06:10:36.174Z,41.90
2018-03-25T06:13:03.671Z,42.92
2018-03-25T06:15:31.927Z,40.08
2018-03-25T06:18:00.199Z,37.78
2018-03-25T06:20:27.715Z,36.83
2018-03-25T06:22:55.211Z,34.78
2018-03-25T06:25:22.703Z,37.90
2018-03-25T06:27:50.210Z,40.33
2018-03-25T06:30:17.730Z,37.03
2018-03-25T06:32:45.230Z,45.22
2018-03-25T06:35:12.738Z,38.22
2018-03-25T06:37:40.232Z,36.20
2018-03-25T06:40:07.726Z,37.17
2018-03-25T06:42:35.245Z,36.42
2018-03-25T06:45:02.748Z,34.83
2018-03-25T06:47:31.007Z,42.65
2018-03-25T06:49:58.518Z,36.92
2018-03-25T06:52:26.053Z,35.17
2018-03-25T06:54:54.332Z,43.63
2018-03-25T06:57:22.608Z,36.75
2018-03-25T06:59:51.130Z,38.17
2018-03-25T07:02:18.548Z,39.85
2018-03-25T07:04:46.806Z,35.75
2018-03-25T07:07:14.328Z,38.88
2018-03-25T07:09:41.849Z,36.83
2018-03-25T07:12:09.348Z,35.03
2018-03-25T07:14:36.863Z,34.08
2018-03-25T07:17:04.380Z,33.83
2018-03-25T07:19:32.642Z,32.65
2018-03-25T07:22:00.152Z,33.17
2018-03-25T07:24:28.424Z,35.30
2018-03-25T07:26:56.688Z,36.47
2018-03-25T07:29:24.963Z,36.83
2018-03-25T07:31:53.232Z,34.88
2018-03-25T07:34:20.731Z,36.17
2018-03-25T07:36:48.227Z,38.28
2018-03-25T07:39:15.733Z,36.38
2018-03-25T07:41:43.992Z,37.58
2018-03-25T07:44:12.439Z,35.45
2018-03-25T07:46:39.944Z,34.13
2018-03-25T07:49:08.224Z,34.42
2018-03-25T07:51:36.493Z,33.90
2018-03-25T07:54:04.756Z,36.95
2018-03-25T07:56:32.254Z,35.60
2018-03-25T07:58:59.752Z,35.42
2018-03-25T08:01:27.259Z,34.40
2018-03-25T08:03:54.825Z,33.85
2018-03-25T08:06:22.270Z,36.22
2018-03-25T08:08:49.766Z,34.00
2018-03-25T08:11:17.276Z,31.27
2018-03-25T08:13:45.551Z,34.53
2018-03-25T08:16:13.881Z,33.72
2018-03-25T08:18:41.366Z,33.05
2018-03-25T08:21:08.879Z,32.53
2018-03-25T08:23:36.383Z,29.77
2018-03-25T08:26:03.882Z,32.80
2018-03-25T08:28:31.380Z,31.80
2018-03-25T08:30:58.875Z,30.83
2018-03-25T08:33:27.186Z,31.02
2018-03-25T08:35:54.683Z,29.87
2018-03-25T08:38:22.176Z,29.92
2018-03-25T08:40:50.456Z,27.37
2018-03-25T08:43:18.731Z,33.45
2018-03-25T08:45:46.991Z,32.00
2018-03-25T08:48:15.254Z,29.65
2018-03-25T08:50:42.756Z,28.05
2018-03-25T08:53:10.259Z,30.60
2018-03-25T08:55:37.770Z,30.12
2018-03-25T08:58:05.267Z,28.90
2018-03-25T09:00:32.767Z,32.72
2018-03-25T09:03:01.047Z,29.23
2018-03-25T09:05:29.310Z,29.25
2018-03-25T09:07:56.803Z,29.87
2018-03-25T09:10:24.306Z,31.85
2018-03-25T09:12:51.804Z,31.35
2018-03-25T09:15:20.079Z,31.77
2018-03-25T09:17:48.339Z,27.40
2018-03-25T09:20:16.627Z,28.55
2018-03-25T09:22:44.883Z,29.73
2018-03-25T09:25:12.384Z,31.12
2018-03-25T09:27:39.884Z,28.85
2018-03-25T09:30:07.382Z,32.25
2018-03-25T09:32:35.651Z,28.40
2018-03-25T09:35:03.919Z,27.27
2018-03-25T09:37:32.191Z,28.70
2018-03-25T09:40:00.457Z,30.83
2018-03-25T09:42:28.740Z,27.30
2018-03-25T09:44:56.250Z,26.52
2018-03-25T09:47:23.743Z,25.45
2018-03-25T09:49:51.243Z,25.10
2018-03-25T09:52:18.758Z,25.80
2018-03-25T09:54:46.256Z,23.25
2018-03-25T09:57:13.783Z,22.33
2018-03-25T09:59:41.278Z,27.80
2018-03-25T10:15:33.316Z,19.48
2018-03-25T10:18:00.828Z,22.48
2018-03-25T10:20:28.314Z,20.98
2018-03-25T10:22:55.868Z,21.83
2018-03-25T10:25:23.367Z,24.37
2018-03-25T10:27:50.879Z,23.05
2018-03-25T10:30:19.140Z,23.98
2018-03-25T10:32:47.414Z,23.38
2018-03-25T10:35:15.694Z,22.08
2018-03-25T10:37:43.201Z,23.12
2018-03-25T10:40:10.708Z,22.60
2018-03-25T10:42:38.215Z,24.55
2018-03-25T10:45:05.748Z,22.15
2018-03-25T10:47:34.012Z,22.25
2018-03-25T10:50:02.316Z,21.40
2018-03-25T10:52:29.823Z,21.62
2018-03-25T10:54:57.331Z,20.80
2018-03-25T10:57:24.897Z,21.05
2018-03-25T10:59:52.363Z,21.58
2018-03-25T11:02:19.894Z,22.30
2018-03-25T11:04:47.451Z,20.65
2018-03-25T11:07:15.721Z,22.35
2018-03-25T11:09:43.999Z,24.25
2018-03-25T11:12:12.282Z,19.25
2018-03-25T11:14:39.803Z,20.27
2018-03-25T11:17:07.311Z,20.80
2018-03-25T11:19:34.819Z,22.23
2018-03-25T11:22:02.345Z,21.87
2018-03-25T11:24:29.859Z,22.83
2018-03-25T11:26:58.135Z,23.77
2018-03-25T11:29:26.407Z,20.58
2018-03-25T11:31:55.456Z,23.52
2018-03-25T11:34:22.995Z,21.98
2018-03-25T11:36:50.523Z,23.60
2018-03-25T11:39:18.829Z,23.57
2018-03-25T11:41:46.343Z,21.10
2018-03-25T11:44:13.853Z,19.80
2018-03-25T11:46:41.373Z,19.53
2018-03-25T11:49:09.655Z,20.98
2018-03-25T11:51:37.935Z,21.07
2018-03-25T11:54:06.350Z,20.73
2018-03-25T11:56:33.888Z,21.87
2018-03-25T11:59:01.403Z,19.07
2018-03-25T12:01:28.914Z,20.63
2018-03-25T12:03:56.562Z,21.10
2018-03-25T12:06:24.849Z,21.50
2018-03-25T12:08:52.357Z,21.60
2018-03-25T12:11:19.875Z,22.13
2018-03-25T12:13:47.367Z,18.93
2018-03-25T12:16:14.867Z,21.17
2018-03-25T12:18:43.136Z,21.33
2018-03-25T12:21:11.425Z,19.47
2018-03-25T12:23:39.697Z,20.13
2018-03-25T12:26:07.973Z,19.30
2018-03-25T12:28:36.252Z,19.53
2018-03-25T12:31:04.514Z,18.80
2018-03-25T12:33:32.824Z,20.27
2018-03-25T12:36:00.343Z,18.80
2018-03-25T12:38:29.356Z,22.90
2018-03-25T12:40:57.623Z,20.57
2018-03-25T12:43:25.896Z,21.30
2018-03-25T12:45:54.172Z,23.10
2018-03-25T12:48:21.696Z,19.23
2018-03-25T12:50:49.195Z,20.43
2018-03-25T12:53:17.484Z,22.77
2018-03-25T12:55:45.822Z,20.53
2018-03-25T12:58:13.331Z,20.87
2018-03-25T13:00:40.839Z,23.00
2018-03-25T13:03:08.354Z,21.43
2018-03-25T13:05:35.867Z,21.63
2018-03-25T13:08:03.395Z,21.23
2018-03-25T13:10:30.915Z,20.33
2018-03-25T13:12:58.428Z,21.30
2018-03-25T13:15:25.930Z,19.90
2018-03-25T13:17:54.196Z,19.83
2018-03-25T13:20:22.464Z,19.17
2018-03-25T13:22:49.982Z,19.90
2018-03-25T13:25:17.498Z,20.77
2018-03-25T13:27:45.778Z,23.20
2018-03-25T13:30:14.044Z,20.40
2018-03-25T13:32:42.354Z,21.43
2018-03-25T13:35:09.852Z,18.83
2018-03-25T13:37:37.354Z,19.97
2018-03-25T13:40:04.867Z,20.03
2018-03-25T13:42:32.388Z,19.53
2018-03-25T13:44:59.915Z,20.87
2018-03-25T13:47:28.192Z,21.27
2018-03-25T13:49:56.488Z,21.13
2018-03-25T13:52:23.991Z,20.80
2018-03-25T13:54:51.512Z,20.77
2018-03-25T13:57:19.031Z,29.73
2018-03-25T13:59:47.306Z,20.20
2018-03-25T14:02:15.629Z,20.33
2018-03-25T14:04:43.140Z,20.67
2018-03-25T14:07:10.654Z,20.67
2018-03-25T14:09:38.179Z,20.50
2018-03-25T14:12:06.454Z,19.93
2018-03-25T14:14:34.731Z,21.73
2018-03-25T14:17:03.011Z,19.00
2018-03-25T14:19:30.530Z,20.37
2018-03-25T14:21:58.027Z,21.00
2018-03-25T14:24:25.539Z,22.63
2018-03-25T14:26:53.047Z,21.13
2018-03-25T14:29:21.322Z,21.07
2018-03-25T14:31:48.843Z,21.87
2018-03-25T14:34:16.375Z,21.40
2018-03-25T14:36:43.873Z,20.70
2018-03-25T14:42:02.226Z,21.33
2018-03-25T14:44:32.864Z,25.10
2018-03-25T14:47:10.051Z,22.00
2018-03-25T14:49:54.615Z,22.00
2018-03-25T14:52:31.185Z,21.73
2018-03-25T14:55:07.066Z,22.67
2018-03-25T14:57:50.802Z,22.73
2018-03-25T15:00:25.273Z,21.93
2018-03-25T15:10:44.381Z,20.97
2018-03-25T15:13:19.317Z,21.83
2018-03-25T15:20:45.939Z,22.50
2018-03-25T15:23:24.972Z,22.27
2018-03-25T15:26:01.061Z,23.00
2018-03-25T15:28:44.273Z,24.13
2018-03-25T15:31:16.252Z,24.53
2018-03-25T15:34:01.404Z,23.97
2018-03-25T15:36:40.034Z,21.87
2018-03-25T15:39:38.107Z,23.53
2018-03-25T15:42:32.078Z,22.67
2018-03-25T15:45:16.433Z,23.43
2018-03-25T15:48:04.672Z,24.20
2018-03-25T15:50:39.297Z,23.23
2018-03-25T15:53:10.340Z,24.40
2018-03-25T15:55:45.775Z,26.07
2018-03-25T15:58:19.793Z,23.43
2018-03-25T16:03:36.929Z,24.90
2018-03-25T16:06:12.066Z,24.97
2018-03-25T16:08:48.943Z,22.37
2018-03-25T16:11:27.045Z,21.80
2018-03-25T16:14:29.727Z,21.60
2018-03-25T16:20:31.925Z,19.95
2018-03-25T16:23:12.491Z,22.90
2018-03-25T16:29:27.014Z,26.67
2018-03-25T16:32:16.824Z,25.90
2018-03-25T16:34:59.844Z,22.17
2018-03-25T16:37:45.246Z,22.10
2018-03-25T16:46:26.985Z,23.83
2018-03-25T16:49:12.158Z,20.85
2018-03-25T16:51:49.445Z,20.48
2018-03-25T17:00:14.435Z,21.10
2018-03-25T17:03:20.337Z,24.42
2018-03-25T17:06:05.723Z,22.37
2018-03-25T17:11:28.693Z,21.45
2018-03-25T17:14:12.370Z,22.70
2018-03-25T17:19:39.501Z,27.13
2018-03-25T17:22:25.384Z,21.62
2018-03-25T17:25:22.158Z,23.30
2018-03-25T17:28:22.045Z,24.83
2018-03-25T17:30:57.185Z,23.52
2018-03-25T17:33:35.834Z,24.15
2018-03-25T17:36:15.885Z,23.50
2018-03-25T17:38:49.483Z,25.70
2018-03-25T17:41:38.237Z,22.08
2018-03-25T17:44:10.915Z,27.92
2018-03-25T17:46:42.978Z,23.80
2018-03-25T17:49:14.613Z,26.62
2018-03-25T17:52:00.012Z,25.62
2018-03-25T17:54:44.973Z,26.45
2018-03-25T17:57:41.103Z,25.98
2018-03-25T18:00:28.527Z,24.80
2018-03-25T18:03:05.748Z,25.15
2018-03-25T18:05:49.437Z,25.98
2018-03-25T18:08:39.832Z,23.80
2018-03-25T18:20:56.294Z,24.73
2018-03-25T18:23:23.851Z,26.27
2018-03-25T18:26:00.447Z,25.05
2018-03-25T18:28:58.521Z,26.35
2018-03-25T18:31:49.107Z,29.12
2018-03-25T18:37:37.760Z,26.33
2018-03-25T18:43:25.514Z,27.25
2018-03-25T18:46:00.470Z,27.08
2018-03-25T18:57:55.432Z,30.25
2018-03-25T19:03:58.954Z,27.45
2018-03-25T19:06:40.805Z,28.25
2018-03-25T19:09:40.049Z,30.50
2018-03-25T19:12:30.956Z,29.70
2018-03-25T19:15:10.239Z,29.80
2018-03-25T19:17:47.221Z,27.95
2018-03-25T19:23:37.176Z,32.65
2018-03-25T19:26:21.986Z,27.87
2018-03-25T19:29:00.684Z,30.75
2018-03-25T19:31:33.584Z,27.30
2018-03-25T19:40:13.539Z,29.85
2018-03-25T19:42:50.776Z,28.90
2018-03-25T19:45:21.177Z,29.90
2018-03-25T19:47:53.316Z,26.98
2018-03-25T19:50:28.887Z,28.92
2018-03-25T19:53:06.276Z,27.10
2018-03-25T19:55:49.502Z,26.45
2018-03-25T19:58:22.365Z,28.60
2018-03-25T20:01:09.193Z,27.90
2018-03-25T20:03:51.586Z,31.23
2018-03-25T20:06:26.885Z,28.45
2018-03-25T20:09:07.906Z,28.77
2018-03-25T20:11:43.753Z,28.38
2018-03-25T20:14:21.164Z,26.40
2018-03-25T20:16:55.981Z,27.55
2018-03-25T20:19:39.405Z,30.25
2018-03-25T20:24:57.255Z,28.85
2018-03-25T20:27:48.472Z,30.35
2018-03-25T20:33:40.833Z,32.60
2018-03-25T20:36:40.843Z,30.70
2018-03-25T20:39:34.980Z,30.40
2018-03-25T20:42:19.690Z,29.80
2018-03-25T20:45:02.620Z,30.98
2018-03-25T20:47:40.931Z,32.30
2018-03-25T21:01:48.164Z,29.25
2018-03-25T21:04:22.586Z,26.27
2018-03-25T21:07:11.108Z,30.65
2018-03-25T21:09:59.205Z,30.37
2018-03-25T21:12:41.271Z,29.12
2018-03-25T21:15:23.577Z,30.48
2018-03-25T21:21:32.973Z,30.75
2018-03-25T21:29:54.123Z,29.98
2018-03-25T21:32:35.377Z,30.62
2018-03-25T21:35:16.832Z,34.75
2018-03-25T21:38:07.283Z,30.30
2018-03-25T21:43:43.878Z,34.45
2018-03-25T21:46:39.124Z,32.05
2018-03-25T21:52:20.213Z,30.55
2018-03-25T21:55:01.338Z,33.13
2018-03-25T21:57:55.341Z,34.75
2018-03-25T22:00:33.370Z,34.65
2018-03-25T22:03:18.028Z,29.85
2018-03-25T22:05:58.699Z,30.48
2018-03-25T22:11:16.029Z,32.00
2018-03-25T22:16:54.974Z,30.73
2018-03-25T22:19:31.841Z,31.08
2018-03-25T22:22:13.020Z,31.85
2018-03-25T22:24:51.744Z,29.02
2018-03-25T22:30:15.734Z,26.27
2018-03-25T22:32:56.749Z,28.92
2018-03-25T22:38:41.738Z,33.30
2018-03-25T22:41:29.821Z,31.10
2018-03-25T22:47:24.048Z,31.42
2018-03-25T22:50:04.846Z,31.05
2018-03-25T22:53:05.969Z,32.80
2018-03-25T22:56:03.574Z,29.73
2018-03-25T23:10:41.785Z,27.13
2018-03-25T23:13:38.870Z,31.15
2018-03-25T23:22:18.043Z,32.05
2018-03-25T23:24:55.797Z,36.78
2018-03-25T23:37:57.066Z,32.58
2018-03-25T23:40:40.329Z,32.15
2018-03-25T23:48:54.267Z,29.92
2018-03-25T23:57:15.039Z,29.65
